sensor_id;sensor_type;location;lat;lon;timestamp;P1;durP1;ratioP1;P2;durP2;ratioP2
12947;SDS011;6539;49.476;8.484;2023-09-12T00:02:11;26.83;;;10.70;;
12947;SDS011;6539;49.476;8.484;2023-09-12T00:04:57;20.13;;;10.27;;
12947;SDS011;6539;49.476;8.484;2023-09-12T00:07:44;23.03;;;10.43;;
12947;SDS011;6539;49.476;8.484;2023-09-12T00:10:30;16.90;;;9.37;;
12947;SDS011;6539;49.476;8.484;2023-09-12T00:13:16;29.70;;;10.60;;
12947;SDS011;6539;49.476;8.484;2023-09-12T00:16:02;22.63;;;9.83;;
12947;SDS011;6539;49.476;8.484;2023-09-12T00:18:48;19.13;;;10.33;;
12947;SDS011;6539;49.476;8.484;2023-09-12T00:21:37;22.40;;;9.77;;
12947;SDS011;6539;49.476;8.484;2023-09-12T00:24:23;22.67;;;10.27;;
12947;SDS011;6539;49.476;8.484;2023-09-12T00:27:11;14.83;;;9.50;;
12947;SDS011;6539;49.476;8.484;2023-09-12T00:29:57;19.90;;;9.87;;
12947;SDS011;6539;49.476;8.484;2023-09-12T00:32:45;20.27;;;9.87;;
12947;SDS011;6539;49.476;8.484;2023-09-12T00:35:34;15.97;;;9.67;;
12947;SDS011;6539;49.476;8.484;2023-09-12T00:38:20;19.07;;;9.70;;
12947;SDS011;6539;49.476;8.484;2023-09-12T00:41:06;13.17;;;8.93;;
12947;SDS011;6539;49.476;8.484;2023-09-12T00:43:52;17.10;;;8.97;;
12947;SDS011;6539;49.476;8.484;2023-09-12T00:46:38;21.07;;;9.87;;
12947;SDS011;6539;49.476;8.484;2023-09-12T00:49:28;22.33;;;9.73;;
12947;SDS011;6539;49.476;8.484;2023-09-12T00:52:16;21.10;;;10.53;;
12947;SDS011;6539;49.476;8.484;2023-09-12T00:55:08;20.70;;;9.80;;
12947;SDS011;6539;49.476;8.484;2023-09-12T00:57:54;16.20;;;8.70;;
12947;SDS011;6539;49.476;8.484;2023-09-12T01:00:41;17.80;;;10.13;;
12947;SDS011;6539;49.476;8.484;2023-09-12T01:03:27;17.90;;;9.93;;
12947;SDS011;6539;49.476;8.484;2023-09-12T01:06:17;19.00;;;9.40;;
12947;SDS011;6539;49.476;8.484;2023-09-12T01:09:09;20.80;;;9.70;;
12947;SDS011;6539;49.476;8.484;2023-09-12T01:12:00;21.20;;;10.07;;
12947;SDS011;6539;49.476;8.484;2023-09-12T01:14:49;18.03;;;9.10;;
12947;SDS011;6539;49.476;8.484;2023-09-12T01:17:37;14.13;;;9.50;;
12947;SDS011;6539;49.476;8.484;2023-09-12T01:20:27;21.00;;;10.73;;
12947;SDS011;6539;49.476;8.484;2023-09-12T01:30:00;19.77;;;10.30;;
12947;SDS011;6539;49.476;8.484;2023-09-12T01:32:50;14.93;;;9.10;;
12947;SDS011;6539;49.476;8.484;2023-09-12T01:35:40;18.60;;;9.40;;
12947;SDS011;6539;49.476;8.484;2023-09-12T01:38:31;15.07;;;9.43;;
12947;SDS011;6539;49.476;8.484;2023-09-12T01:41:18;17.67;;;9.47;;
12947;SDS011;6539;49.476;8.484;2023-09-12T01:44:07;17.80;;;9.77;;
12947;SDS011;6539;49.476;8.484;2023-09-12T01:46:55;16.23;;;10.20;;
12947;SDS011;6539;49.476;8.484;2023-09-12T01:49:49;17.13;;;9.53;;
12947;SDS011;6539;49.476;8.484;2023-09-12T01:52:43;19.97;;;10.20;;
12947;SDS011;6539;49.476;8.484;2023-09-12T01:55:29;22.43;;;10.80;;
12947;SDS011;6539;49.476;8.484;2023-09-12T01:58:20;17.30;;;10.20;;
12947;SDS011;6539;49.476;8.484;2023-09-12T02:01:06;14.60;;;10.53;;
12947;SDS011;6539;49.476;8.484;2023-09-12T02:03:53;15.60;;;10.10;;
12947;SDS011;6539;49.476;8.484;2023-09-12T02:06:39;21.37;;;10.33;;
12947;SDS011;6539;49.476;8.484;2023-09-12T02:09:25;16.23;;;10.37;;
12947;SDS011;6539;49.476;8.484;2023-09-12T02:12:11;20.70;;;10.93;;
12947;SDS011;6539;49.476;8.484;2023-09-12T02:14:57;16.57;;;10.90;;
12947;SDS011;6539;49.476;8.484;2023-09-12T02:17:43;16.03;;;10.23;;
12947;SDS011;6539;49.476;8.484;2023-09-12T02:20:32;17.80;;;10.57;;
12947;SDS011;6539;49.476;8.484;2023-09-12T02:23:26;15.93;;;10.23;;
12947;SDS011;6539;49.476;8.484;2023-09-12T02:26:12;16.43;;;10.57;;
12947;SDS011;6539;49.476;8.484;2023-09-12T02:28:58;14.77;;;9.53;;
12947;SDS011;6539;49.476;8.484;2023-09-12T02:31:44;18.77;;;10.43;;
12947;SDS011;6539;49.476;8.484;2023-09-12T02:34:32;19.97;;;10.07;;
12947;SDS011;6539;49.476;8.484;2023-09-12T02:37:21;18.77;;;10.20;;
12947;SDS011;6539;49.476;8.484;2023-09-12T02:40:09;17.73;;;10.73;;
12947;SDS011;6539;49.476;8.484;2023-09-12T02:42:59;21.27;;;11.20;;
12947;SDS011;6539;49.476;8.484;2023-09-12T02:45:46;17.60;;;11.40;;
12947;SDS011;6539;49.476;8.484;2023-09-12T02:48:31;20.10;;;10.53;;
12947;SDS011;6539;49.476;8.484;2023-09-12T02:51:18;21.23;;;11.17;;
12947;SDS011;6539;49.476;8.484;2023-09-12T02:54:06;19.97;;;11.47;;
12947;SDS011;6539;49.476;8.484;2023-09-12T02:56:52;20.23;;;11.73;;
12947;SDS011;6539;49.476;8.484;2023-09-12T02:59:38;21.50;;;12.07;;
12947;SDS011;6539;49.476;8.484;2023-09-12T03:02:24;25.60;;;12.23;;
12947;SDS011;6539;49.476;8.484;2023-09-12T03:05:17;27.60;;;14.13;;
12947;SDS011;6539;49.476;8.484;2023-09-12T03:08:03;24.17;;;13.17;;
12947;SDS011;6539;49.476;8.484;2023-09-12T03:10:57;23.73;;;12.00;;
12947;SDS011;6539;49.476;8.484;2023-09-12T03:13:50;20.97;;;13.03;;
12947;SDS011;6539;49.476;8.484;2023-09-12T03:16:36;25.60;;;14.00;;
12947;SDS011;6539;49.476;8.484;2023-09-12T03:19:23;21.77;;;12.83;;
12947;SDS011;6539;49.476;8.484;2023-09-12T03:22:12;19.83;;;12.93;;
12947;SDS011;6539;49.476;8.484;2023-09-12T03:25:00;21.77;;;12.70;;
12947;SDS011;6539;49.476;8.484;2023-09-12T03:27:47;21.47;;;12.07;;
12947;SDS011;6539;49.476;8.484;2023-09-12T03:30:36;21.13;;;13.90;;
12947;SDS011;6539;49.476;8.484;2023-09-12T03:33:25;20.57;;;12.63;;
12947;SDS011;6539;49.476;8.484;2023-09-12T03:36:11;21.93;;;12.83;;
12947;SDS011;6539;49.476;8.484;2023-09-12T03:39:00;22.10;;;12.27;;
12947;SDS011;6539;49.476;8.484;2023-09-12T03:41:46;22.03;;;12.07;;
12947;SDS011;6539;49.476;8.484;2023-09-12T03:44:34;21.83;;;11.93;;
12947;SDS011;6539;49.476;8.484;2023-09-12T03:47:20;19.00;;;12.27;;
12947;SDS011;6539;49.476;8.484;2023-09-12T03:50:06;19.17;;;12.00;;
12947;SDS011;6539;49.476;8.484;2023-09-12T03:52:53;22.37;;;12.80;;
12947;SDS011;6539;49.476;8.484;2023-09-12T03:55:39;15.53;;;13.40;;
12947;SDS011;6539;49.476;8.484;2023-09-12T03:58:28;23.63;;;13.23;;
12947;SDS011;6539;49.476;8.484;2023-09-12T04:01:16;17.87;;;12.53;;
12947;SDS011;6539;49.476;8.484;2023-09-12T04:04:02;21.07;;;12.47;;
12947;SDS011;6539;49.476;8.484;2023-09-12T04:06:48;19.83;;;12.57;;
12947;SDS011;6539;49.476;8.484;2023-09-12T04:09:34;16.77;;;12.13;;
12947;SDS011;6539;49.476;8.484;2023-09-12T04:12:21;21.13;;;12.10;;
12947;SDS011;6539;49.476;8.484;2023-09-12T04:15:07;20.50;;;12.63;;
12947;SDS011;6539;49.476;8.484;2023-09-12T04:17:53;20.87;;;12.63;;
12947;SDS011;6539;49.476;8.484;2023-09-12T04:20:39;19.00;;;12.53;;
12947;SDS011;6539;49.476;8.484;2023-09-12T04:23:25;18.27;;;12.80;;
12947;SDS011;6539;49.476;8.484;2023-09-12T04:26:11;19.50;;;12.83;;
12947;SDS011;6539;49.476;8.484;2023-09-12T04:28:57;18.57;;;13.33;;
12947;SDS011;6539;49.476;8.484;2023-09-12T04:31:43;21.90;;;13.57;;
12947;SDS011;6539;49.476;8.484;2023-09-12T04:34:29;17.40;;;12.03;;
12947;SDS011;6539;49.476;8.484;2023-09-12T04:37:18;17.80;;;11.77;;
12947;SDS011;6539;49.476;8.484;2023-09-12T04:40:07;19.10;;;12.27;;
12947;SDS011;6539;49.476;8.484;2023-09-12T04:42:58;18.47;;;12.13;;
12947;SDS011;6539;49.476;8.484;2023-09-12T04:45:44;20.43;;;10.73;;
12947;SDS011;6539;49.476;8.484;2023-09-12T04:48:35;17.97;;;11.50;;
12947;SDS011;6539;49.476;8.484;2023-09-12T04:51:23;18.07;;;10.83;;
12947;SDS011;6539;49.476;8.484;2023-09-12T04:54:12;20.57;;;12.90;;
12947;SDS011;6539;49.476;8.484;2023-09-12T04:56:58;20.73;;;11.20;;
12947;SDS011;6539;49.476;8.484;2023-09-12T04:59:44;17.33;;;10.80;;
12947;SDS011;6539;49.476;8.484;2023-09-12T05:02:30;22.97;;;12.03;;
12947;SDS011;6539;49.476;8.484;2023-09-12T05:05:16;38.00;;;16.27;;
12947;SDS011;6539;49.476;8.484;2023-09-12T05:08:05;19.97;;;11.17;;
12947;SDS011;6539;49.476;8.484;2023-09-12T05:10:54;15.13;;;10.57;;
12947;SDS011;6539;49.476;8.484;2023-09-12T05:13:42;17.20;;;11.10;;
12947;SDS011;6539;49.476;8.484;2023-09-12T05:16:29;19.60;;;11.10;;
12947;SDS011;6539;49.476;8.484;2023-09-12T05:19:15;21.47;;;11.33;;
12947;SDS011;6539;49.476;8.484;2023-09-12T05:22:01;26.43;;;15.27;;
12947;SDS011;6539;49.476;8.484;2023-09-12T05:24:52;18.37;;;12.07;;
12947;SDS011;6539;49.476;8.484;2023-09-12T05:27:39;19.40;;;13.00;;
12947;SDS011;6539;49.476;8.484;2023-09-12T05:30:27;21.73;;;12.20;;
12947;SDS011;6539;49.476;8.484;2023-09-12T05:33:15;22.23;;;13.60;;
12947;SDS011;6539;49.476;8.484;2023-09-12T05:36:02;19.53;;;12.20;;
12947;SDS011;6539;49.476;8.484;2023-09-12T05:38:50;20.50;;;13.10;;
12947;SDS011;6539;49.476;8.484;2023-09-12T05:41:36;18.50;;;12.97;;
12947;SDS011;6539;49.476;8.484;2023-09-12T05:44:25;25.30;;;13.40;;
12947;SDS011;6539;49.476;8.484;2023-09-12T05:47:11;29.77;;;17.20;;
12947;SDS011;6539;49.476;8.484;2023-09-12T05:50:00;27.23;;;17.33;;
12947;SDS011;6539;49.476;8.484;2023-09-12T05:52:51;23.60;;;14.37;;
12947;SDS011;6539;49.476;8.484;2023-09-12T05:55:37;19.73;;;13.63;;
12947;SDS011;6539;49.476;8.484;2023-09-12T05:58:26;25.97;;;12.17;;
12947;SDS011;6539;49.476;8.484;2023-09-12T06:01:12;22.07;;;13.10;;
12947;SDS011;6539;49.476;8.484;2023-09-12T06:04:01;26.30;;;12.87;;
12947;SDS011;6539;49.476;8.484;2023-09-12T06:06:49;18.53;;;12.33;;
12947;SDS011;6539;49.476;8.484;2023-09-12T06:09:35;21.73;;;11.73;;
12947;SDS011;6539;49.476;8.484;2023-09-12T06:12:26;24.83;;;13.43;;
12947;SDS011;6539;49.476;8.484;2023-09-12T06:15:14;21.10;;;13.33;;
12947;SDS011;6539;49.476;8.484;2023-09-12T06:18:01;20.40;;;12.87;;
12947;SDS011;6539;49.476;8.484;2023-09-12T06:20:47;21.60;;;13.10;;
12947;SDS011;6539;49.476;8.484;2023-09-12T06:23:35;21.13;;;13.33;;
12947;SDS011;6539;49.476;8.484;2023-09-12T06:26:25;19.00;;;12.47;;
12947;SDS011;6539;49.476;8.484;2023-09-12T06:29:14;26.77;;;13.93;;
12947;SDS011;6539;49.476;8.484;2023-09-12T06:32:06;24.77;;;13.57;;
12947;SDS011;6539;49.476;8.484;2023-09-12T06:34:52;22.87;;;12.97;;
12947;SDS011;6539;49.476;8.484;2023-09-12T06:37:38;22.90;;;14.10;;
12947;SDS011;6539;49.476;8.484;2023-09-12T06:40:29;22.17;;;14.23;;
12947;SDS011;6539;49.476;8.484;2023-09-12T06:43:15;25.27;;;13.60;;
12947;SDS011;6539;49.476;8.484;2023-09-12T06:46:01;23.20;;;14.93;;
12947;SDS011;6539;49.476;8.484;2023-09-12T06:48:50;30.03;;;15.07;;
12947;SDS011;6539;49.476;8.484;2023-09-12T06:51:36;21.23;;;15.33;;
12947;SDS011;6539;49.476;8.484;2023-09-12T06:54:22;27.63;;;14.33;;
12947;SDS011;6539;49.476;8.484;2023-09-12T06:57:08;27.03;;;15.00;;
12947;SDS011;6539;49.476;8.484;2023-09-12T06:59:54;27.73;;;14.60;;
12947;SDS011;6539;49.476;8.484;2023-09-12T07:02:40;28.70;;;14.83;;
12947;SDS011;6539;49.476;8.484;2023-09-12T07:05:28;26.57;;;13.93;;
12947;SDS011;6539;49.476;8.484;2023-09-12T07:08:14;27.20;;;12.17;;
12947;SDS011;6539;49.476;8.484;2023-09-12T07:11:00;33.50;;;13.33;;
12947;SDS011;6539;49.476;8.484;2023-09-12T07:13:53;30.60;;;13.83;;
12947;SDS011;6539;49.476;8.484;2023-09-12T07:16:39;40.70;;;14.07;;
12947;SDS011;6539;49.476;8.484;2023-09-12T07:19:27;26.47;;;13.83;;
12947;SDS011;6539;49.476;8.484;2023-09-12T07:22:13;27.00;;;12.87;;
12947;SDS011;6539;49.476;8.484;2023-09-12T07:24:59;22.63;;;11.53;;
12947;SDS011;6539;49.476;8.484;2023-09-12T07:27:49;25.07;;;12.10;;
12947;SDS011;6539;49.476;8.484;2023-09-12T07:30:35;20.90;;;11.23;;
12947;SDS011;6539;49.476;8.484;2023-09-12T07:33:22;22.30;;;11.73;;
12947;SDS011;6539;49.476;8.484;2023-09-12T07:36:11;19.83;;;11.43;;
12947;SDS011;6539;49.476;8.484;2023-09-12T07:38:59;18.73;;;11.80;;
12947;SDS011;6539;49.476;8.484;2023-09-12T07:41:49;24.77;;;12.33;;
12947;SDS011;6539;49.476;8.484;2023-09-12T07:44:37;21.33;;;12.73;;
12947;SDS011;6539;49.476;8.484;2023-09-12T07:47:28;21.10;;;11.90;;
12947;SDS011;6539;49.476;8.484;2023-09-12T07:50:15;23.47;;;12.37;;
12947;SDS011;6539;49.476;8.484;2023-09-12T07:53:01;22.87;;;12.30;;
12947;SDS011;6539;49.476;8.484;2023-09-12T07:55:48;22.87;;;13.07;;
12947;SDS011;6539;49.476;8.484;2023-09-12T07:58:34;22.07;;;11.87;;
12947;SDS011;6539;49.476;8.484;2023-09-12T08:01:22;18.97;;;11.43;;
12947;SDS011;6539;49.476;8.484;2023-09-12T08:04:08;15.90;;;12.10;;
12947;SDS011;6539;49.476;8.484;2023-09-12T08:06:54;18.93;;;11.63;;
12947;SDS011;6539;49.476;8.484;2023-09-12T08:09:53;18.43;;;11.33;;
12947;SDS011;6539;49.476;8.484;2023-09-12T08:12:42;20.37;;;11.47;;
12947;SDS011;6539;49.476;8.484;2023-09-12T08:15:28;15.20;;;10.70;;
12947;SDS011;6539;49.476;8.484;2023-09-12T08:18:17;14.27;;;10.17;;
12947;SDS011;6539;49.476;8.484;2023-09-12T08:21:05;21.93;;;10.80;;
12947;SDS011;6539;49.476;8.484;2023-09-12T08:23:51;14.13;;;10.07;;
12947;SDS011;6539;49.476;8.484;2023-09-12T08:26:40;22.50;;;9.77;;
12947;SDS011;6539;49.476;8.484;2023-09-12T08:29:28;17.97;;;10.03;;
12947;SDS011;6539;49.476;8.484;2023-09-12T08:32:16;17.50;;;9.97;;
12947;SDS011;6539;49.476;8.484;2023-09-12T08:35:02;18.23;;;8.63;;
12947;SDS011;6539;49.476;8.484;2023-09-12T08:37:49;15.90;;;9.13;;
12947;SDS011;6539;49.476;8.484;2023-09-12T08:40:35;20.87;;;9.43;;
12947;SDS011;6539;49.476;8.484;2023-09-12T08:43:24;16.93;;;9.80;;
12947;SDS011;6539;49.476;8.484;2023-09-12T08:46:14;21.73;;;10.80;;
12947;SDS011;6539;49.476;8.484;2023-09-12T08:49:03;20.43;;;10.50;;
12947;SDS011;6539;49.476;8.484;2023-09-12T08:51:52;18.60;;;10.03;;
12947;SDS011;6539;49.476;8.484;2023-09-12T08:54:38;20.03;;;10.40;;
12947;SDS011;6539;49.476;8.484;2023-09-12T08:57:29;21.57;;;9.80;;
12947;SDS011;6539;49.476;8.484;2023-09-12T09:00:21;18.60;;;10.93;;
12947;SDS011;6539;49.476;8.484;2023-09-12T09:03:08;22.67;;;11.30;;
12947;SDS011;6539;49.476;8.484;2023-09-12T09:05:59;16.37;;;10.50;;
12947;SDS011;6539;49.476;8.484;2023-09-12T09:08:50;14.07;;;10.07;;
12947;SDS011;6539;49.476;8.484;2023-09-12T09:11:39;19.27;;;10.30;;
12947;SDS011;6539;49.476;8.484;2023-09-12T09:14:25;15.70;;;10.70;;
12947;SDS011;6539;49.476;8.484;2023-09-12T09:17:18;15.87;;;11.63;;
12947;SDS011;6539;49.476;8.484;2023-09-12T09:20:08;14.32;;;10.85;;
12947;SDS011;6539;49.476;8.484;2023-09-12T09:23:08;17.30;;;10.43;;
12947;SDS011;6539;49.476;8.484;2023-09-12T09:25:56;15.25;;;10.23;;
12947;SDS011;6539;49.476;8.484;2023-09-12T09:28:42;12.33;;;10.07;;
12947;SDS011;6539;49.476;8.484;2023-09-12T09:31:28;15.20;;;10.05;;
12947;SDS011;6539;49.476;8.484;2023-09-12T09:34:15;17.65;;;10.63;;
12947;SDS011;6539;49.476;8.484;2023-09-12T09:37:03;15.15;;;10.23;;
12947;SDS011;6539;49.476;8.484;2023-09-12T09:39:50;14.65;;;9.65;;
12947;SDS011;6539;49.476;8.484;2023-09-12T09:42:37;15.35;;;9.35;;
12947;SDS011;6539;49.476;8.484;2023-09-12T09:45:23;14.40;;;9.90;;
12947;SDS011;6539;49.476;8.484;2023-09-12T09:48:21;12.45;;;9.15;;
12947;SDS011;6539;49.476;8.484;2023-09-12T09:51:14;13.98;;;9.82;;
12947;SDS011;6539;49.476;8.484;2023-09-12T09:54:02;13.40;;;9.50;;
12947;SDS011;6539;49.476;8.484;2023-09-12T09:56:54;16.25;;;9.45;;
12947;SDS011;6539;49.476;8.484;2023-09-12T09:59:48;15.40;;;8.98;;
12947;SDS011;6539;49.476;8.484;2023-09-12T10:02:37;11.63;;;8.73;;
12947;SDS011;6539;49.476;8.484;2023-09-12T10:05:25;10.95;;;9.23;;
12947;SDS011;6539;49.476;8.484;2023-09-12T10:08:14;15.90;;;9.55;;
12947;SDS011;6539;49.476;8.484;2023-09-12T10:11:05;16.42;;;10.00;;
12947;SDS011;6539;49.476;8.484;2023-09-12T10:13:53;12.57;;;8.45;;
12947;SDS011;6539;49.476;8.484;2023-09-12T10:16:48;11.38;;;9.43;;
12947;SDS011;6539;49.476;8.484;2023-09-12T10:19:43;10.90;;;8.75;;
12947;SDS011;6539;49.476;8.484;2023-09-12T10:22:43;15.75;;;9.52;;
12947;SDS011;6539;49.476;8.484;2023-09-12T10:25:56;17.50;;;9.82;;
12947;SDS011;6539;49.476;8.484;2023-09-12T10:28:46;14.40;;;9.52;;
12947;SDS011;6539;49.476;8.484;2023-09-12T10:31:33;15.80;;;9.25;;
12947;SDS011;6539;49.476;8.484;2023-09-12T10:34:20;11.93;;;9.13;;
12947;SDS011;6539;49.476;8.484;2023-09-12T10:37:11;14.48;;;9.73;;
12947;SDS011;6539;49.476;8.484;2023-09-12T10:40:02;13.40;;;9.35;;
12947;SDS011;6539;49.476;8.484;2023-09-12T10:42:55;13.85;;;9.57;;
12947;SDS011;6539;49.476;8.484;2023-09-12T10:45:50;12.20;;;9.30;;
12947;SDS011;6539;49.476;8.484;2023-09-12T10:48:40;14.48;;;9.52;;
12947;SDS011;6539;49.476;8.484;2023-09-12T10:51:27;16.23;;;9.40;;
12947;SDS011;6539;49.476;8.484;2023-09-12T10:54:15;14.48;;;9.02;;
12947;SDS011;6539;49.476;8.484;2023-09-12T10:57:13;14.75;;;9.95;;
12947;SDS011;6539;49.476;8.484;2023-09-12T11:02:52;14.68;;;9.30;;
12947;SDS011;6539;49.476;8.484;2023-09-12T11:05:50;14.00;;;9.77;;
12947;SDS011;6539;49.476;8.484;2023-09-12T11:08:39;12.40;;;8.93;;
12947;SDS011;6539;49.476;8.484;2023-09-12T11:11:28;10.35;;;9.15;;
12947;SDS011;6539;49.476;8.484;2023-09-12T11:14:16;10.95;;;8.88;;
12947;SDS011;6539;49.476;8.484;2023-09-12T11:19:58;14.70;;;9.85;;
12947;SDS011;6539;49.476;8.484;2023-09-12T11:22:57;17.20;;;10.00;;
12947;SDS011;6539;49.476;8.484;2023-09-12T11:26:05;14.85;;;9.20;;
12947;SDS011;6539;49.476;8.484;2023-09-12T11:28:56;11.82;;;8.45;;
12947;SDS011;6539;49.476;8.484;2023-09-12T11:31:51;17.38;;;9.73;;
12947;SDS011;6539;49.476;8.484;2023-09-12T11:34:44;12.27;;;9.07;;
12947;SDS011;6539;49.476;8.484;2023-09-12T11:37:33;12.52;;;9.77;;
12947;SDS011;6539;49.476;8.484;2023-09-12T11:43:22;14.68;;;8.85;;
12947;SDS011;6539;49.476;8.484;2023-09-12T11:46:10;13.38;;;8.57;;
12947;SDS011;6539;49.476;8.484;2023-09-12T11:48:56;11.93;;;8.82;;
12947;SDS011;6539;49.476;8.484;2023-09-12T11:51:47;12.95;;;9.13;;
12947;SDS011;6539;49.476;8.484;2023-09-12T11:54:39;10.13;;;8.75;;
12947;SDS011;6539;49.476;8.484;2023-09-12T11:57:30;14.93;;;8.82;;
12947;SDS011;6539;49.476;8.484;2023-09-12T12:00:17;14.48;;;8.90;;
12947;SDS011;6539;49.476;8.484;2023-09-12T12:03:11;11.90;;;8.68;;
12947;SDS011;6539;49.476;8.484;2023-09-12T12:06:00;13.27;;;8.55;;
12947;SDS011;6539;49.476;8.484;2023-09-12T12:08:46;11.10;;;8.02;;
12947;SDS011;6539;49.476;8.484;2023-09-12T12:11:33;13.57;;;8.10;;
12947;SDS011;6539;49.476;8.484;2023-09-12T12:14:22;10.82;;;7.85;;
12947;SDS011;6539;49.476;8.484;2023-09-12T12:17:11;11.68;;;8.57;;
12947;SDS011;6539;49.476;8.484;2023-09-12T12:19:57;11.30;;;7.32;;
12947;SDS011;6539;49.476;8.484;2023-09-12T12:22:44;11.95;;;8.15;;
12947;SDS011;6539;49.476;8.484;2023-09-12T12:25:33;12.07;;;7.95;;
12947;SDS011;6539;49.476;8.484;2023-09-12T12:28:22;14.38;;;8.18;;
12947;SDS011;6539;49.476;8.484;2023-09-12T12:31:09;9.85;;;7.85;;
12947;SDS011;6539;49.476;8.484;2023-09-12T12:33:55;9.80;;;7.90;;
12947;SDS011;6539;49.476;8.484;2023-09-12T12:36:45;15.10;;;8.45;;
12947;SDS011;6539;49.476;8.484;2023-09-12T12:39:31;16.10;;;8.48;;
12947;SDS011;6539;49.476;8.484;2023-09-12T12:42:18;12.60;;;8.35;;
12947;SDS011;6539;49.476;8.484;2023-09-12T12:45:18;12.05;;;7.82;;
12947;SDS011;6539;49.476;8.484;2023-09-12T12:48:08;12.68;;;8.93;;
12947;SDS011;6539;49.476;8.484;2023-09-12T12:50:59;14.48;;;8.43;;
12947;SDS011;6539;49.476;8.484;2023-09-12T12:54:05;11.70;;;8.35;;
12947;SDS011;6539;49.476;8.484;2023-09-12T12:56:56;16.80;;;8.20;;
12947;SDS011;6539;49.476;8.484;2023-09-12T12:59:45;12.23;;;8.25;;
12947;SDS011;6539;49.476;8.484;2023-09-12T13:02:38;10.73;;;8.50;;
12947;SDS011;6539;49.476;8.484;2023-09-12T13:05:28;10.57;;;7.72;;
12947;SDS011;6539;49.476;8.484;2023-09-12T13:08:21;9.77;;;7.90;;
12947;SDS011;6539;49.476;8.484;2023-09-12T13:11:07;9.27;;;8.15;;
12947;SDS011;6539;49.476;8.484;2023-09-12T13:13:59;11.63;;;7.93;;
12947;SDS011;6539;49.476;8.484;2023-09-12T13:16:46;8.73;;;7.75;;
12947;SDS011;6539;49.476;8.484;2023-09-12T13:19:35;14.40;;;8.20;;
12947;SDS011;6539;49.476;8.484;2023-09-12T13:22:23;10.43;;;8.50;;
12947;SDS011;6539;49.476;8.484;2023-09-12T13:25:09;11.93;;;8.15;;
12947;SDS011;6539;49.476;8.484;2023-09-12T13:27:56;15.35;;;8.10;;
12947;SDS011;6539;49.476;8.484;2023-09-12T13:30:42;9.50;;;7.72;;
12947;SDS011;6539;49.476;8.484;2023-09-12T13:33:30;15.85;;;8.93;;
12947;SDS011;6539;49.476;8.484;2023-09-12T13:36:16;12.40;;;8.10;;
12947;SDS011;6539;49.476;8.484;2023-09-12T13:39:07;9.45;;;7.82;;
12947;SDS011;6539;49.476;8.484;2023-09-12T13:41:55;9.70;;;7.60;;
12947;SDS011;6539;49.476;8.484;2023-09-12T13:44:47;14.15;;;8.40;;
12947;SDS011;6539;49.476;8.484;2023-09-12T13:47:34;12.63;;;8.18;;
12947;SDS011;6539;49.476;8.484;2023-09-12T13:50:20;13.05;;;7.70;;
12947;SDS011;6539;49.476;8.484;2023-09-12T13:53:08;12.50;;;8.13;;
12947;SDS011;6539;49.476;8.484;2023-09-12T13:55:55;9.40;;;8.05;;
12947;SDS011;6539;49.476;8.484;2023-09-12T13:58:42;12.45;;;8.30;;
12947;SDS011;6539;49.476;8.484;2023-09-12T14:01:28;12.63;;;7.85;;
12947;SDS011;6539;49.476;8.484;2023-09-12T14:04:17;11.52;;;8.38;;
12947;SDS011;6539;49.476;8.484;2023-09-12T14:07:03;13.02;;;8.15;;
12947;SDS011;6539;49.476;8.484;2023-09-12T14:09:49;16.85;;;13.48;;
12947;SDS011;6539;49.476;8.484;2023-09-12T14:12:41;9.82;;;8.75;;
12947;SDS011;6539;49.476;8.484;2023-09-12T14:15:27;11.15;;;8.35;;
12947;SDS011;6539;49.476;8.484;2023-09-12T14:18:13;17.73;;;9.05;;
12947;SDS011;6539;49.476;8.484;2023-09-12T14:20:59;11.50;;;9.40;;
12947;SDS011;6539;49.476;8.484;2023-09-12T14:23:45;11.80;;;8.45;;
12947;SDS011;6539;49.476;8.484;2023-09-12T14:26:34;11.82;;;8.75;;
12947;SDS011;6539;49.476;8.484;2023-09-12T14:29:23;11.57;;;7.95;;
12947;SDS011;6539;49.476;8.484;2023-09-12T14:32:14;10.93;;;8.25;;
12947;SDS011;6539;49.476;8.484;2023-09-12T14:35:03;12.43;;;8.23;;
12947;SDS011;6539;49.476;8.484;2023-09-12T14:37:52;13.82;;;8.65;;
12947;SDS011;6539;49.476;8.484;2023-09-12T14:40:40;13.32;;;8.70;;
12947;SDS011;6539;49.476;8.484;2023-09-12T14:43:26;12.65;;;8.38;;
12947;SDS011;6539;49.476;8.484;2023-09-12T14:46:13;12.23;;;8.15;;
12947;SDS011;6539;49.476;8.484;2023-09-12T14:48:59;14.10;;;8.15;;
12947;SDS011;6539;49.476;8.484;2023-09-12T14:51:48;11.10;;;8.25;;
12947;SDS011;6539;49.476;8.484;2023-09-12T14:54:34;9.30;;;8.07;;
12947;SDS011;6539;49.476;8.484;2023-09-12T14:57:20;15.93;;;7.88;;
12947;SDS011;6539;49.476;8.484;2023-09-12T15:00:08;10.30;;;8.07;;
12947;SDS011;6539;49.476;8.484;2023-09-12T15:02:56;11.55;;;8.10;;
12947;SDS011;6539;49.476;8.484;2023-09-12T15:05:45;8.20;;;7.45;;
12947;SDS011;6539;49.476;8.484;2023-09-12T15:08:31;11.77;;;8.20;;
12947;SDS011;6539;49.476;8.484;2023-09-12T15:11:17;8.77;;;7.85;;
12947;SDS011;6539;49.476;8.484;2023-09-12T15:14:03;10.90;;;8.02;;
12947;SDS011;6539;49.476;8.484;2023-09-12T15:16:50;11.55;;;8.18;;
12947;SDS011;6539;49.476;8.484;2023-09-12T15:19:39;12.10;;;8.25;;
12947;SDS011;6539;49.476;8.484;2023-09-12T15:22:28;13.10;;;8.65;;
12947;SDS011;6539;49.476;8.484;2023-09-12T15:25:16;10.32;;;7.80;;
12947;SDS011;6539;49.476;8.484;2023-09-12T15:28:05;9.45;;;8.02;;
12947;SDS011;6539;49.476;8.484;2023-09-12T15:30:51;11.82;;;8.40;;
12947;SDS011;6539;49.476;8.484;2023-09-12T15:33:39;10.50;;;7.80;;
12947;SDS011;6539;49.476;8.484;2023-09-12T15:36:25;10.38;;;8.43;;
12947;SDS011;6539;49.476;8.484;2023-09-12T15:39:12;10.43;;;8.18;;
12947;SDS011;6539;49.476;8.484;2023-09-12T15:42:04;9.07;;;7.97;;
12947;SDS011;6539;49.476;8.484;2023-09-12T15:44:53;10.50;;;8.30;;
12947;SDS011;6539;49.476;8.484;2023-09-12T15:47:42;12.90;;;10.93;;
12947;SDS011;6539;49.476;8.484;2023-09-12T15:50:28;11.55;;;8.27;;
12947;SDS011;6539;49.476;8.484;2023-09-12T15:53:16;11.00;;;8.65;;
12947;SDS011;6539;49.476;8.484;2023-09-12T15:56:02;9.63;;;8.25;;
12947;SDS011;6539;49.476;8.484;2023-09-12T15:58:49;9.55;;;8.57;;
12947;SDS011;6539;49.476;8.484;2023-09-12T16:01:37;13.18;;;7.60;;
12947;SDS011;6539;49.476;8.484;2023-09-12T16:04:23;10.23;;;8.10;;
12947;SDS011;6539;49.476;8.484;2023-09-12T16:07:14;13.43;;;7.88;;
12947;SDS011;6539;49.476;8.484;2023-09-12T16:10:02;10.15;;;7.55;;
12947;SDS011;6539;49.476;8.484;2023-09-12T16:12:51;9.27;;;8.30;;
12947;SDS011;6539;49.476;8.484;2023-09-12T16:15:40;10.55;;;9.13;;
12947;SDS011;6539;49.476;8.484;2023-09-12T16:18:26;11.95;;;8.23;;
12947;SDS011;6539;49.476;8.484;2023-09-12T16:21:16;12.73;;;7.90;;
12947;SDS011;6539;49.476;8.484;2023-09-12T16:24:04;10.40;;;8.02;;
12947;SDS011;6539;49.476;8.484;2023-09-12T16:26:57;8.90;;;8.00;;
12947;SDS011;6539;49.476;8.484;2023-09-12T16:29:46;10.10;;;8.02;;
12947;SDS011;6539;49.476;8.484;2023-09-12T16:32:36;12.45;;;8.82;;
12947;SDS011;6539;49.476;8.484;2023-09-12T16:35:25;10.27;;;8.52;;
12947;SDS011;6539;49.476;8.484;2023-09-12T16:38:14;14.57;;;8.70;;
12947;SDS011;6539;49.476;8.484;2023-09-12T16:41:03;11.23;;;8.32;;
12947;SDS011;6539;49.476;8.484;2023-09-12T16:43:52;12.85;;;8.07;;
12947;SDS011;6539;49.476;8.484;2023-09-12T16:46:40;12.27;;;8.10;;
12947;SDS011;6539;49.476;8.484;2023-09-12T16:49:26;11.65;;;8.35;;
12947;SDS011;6539;49.476;8.484;2023-09-12T16:52:13;12.77;;;8.23;;
12947;SDS011;6539;49.476;8.484;2023-09-12T16:54:58;11.82;;;8.45;;
12947;SDS011;6539;49.476;8.484;2023-09-12T16:57:45;12.88;;;7.60;;
12947;SDS011;6539;49.476;8.484;2023-09-12T17:00:31;8.50;;;7.22;;
12947;SDS011;6539;49.476;8.484;2023-09-12T17:03:17;14.27;;;8.45;;
12947;SDS011;6539;49.476;8.484;2023-09-12T17:06:03;11.68;;;7.35;;